Time;durP1;ratioP1;P1;durP2;ratioP2;P2;SDS_P1;SDS_P2;PMS_P1;PMS_P2;Temp;Humidity;BMP_temperature;BMP_pressure;BME280_temperature;BME280_humidity;BME280_pressure;Samples;Min_cycle;Max_cycle;Signal;HPM_P1;HPM_P2
2022/07/23 00:02:16;;;;;;;6.18;4.50;;;;;;;15.77;93.92;101823.16;5093739;28;20024;-73
2022/07/23 00:04:42;;;;;;;7.68;4.72;;;;;;;15.75;93.76;101817.94;5094209;28;20487;-73
2022/07/23 00:07:07;;;;;;;6.75;4.97;;;;;;;15.73;94.51;101824.13;5093331;28;20031;-73
2022/07/23 00:09:32;;;;;;;8.18;5.22;;;;;;;15.81;94.59;101830.91;5092657;28;20028;-72
2022/07/23 00:11:57;;;;;;;8.82;4.78;;;;;;;15.79;94.13;101819.56;5094201;28;20047;-73
2022/07/23 00:14:23;;;;;;;6.05;4.60;;;;;;;15.82;94.46;101824.72;5093958;28;20039;-73
2022/07/23 00:16:48;;;;;;;7.50;5.03;;;;;;;15.82;94.05;101818.59;5092065;28;20047;-73
2022/07/23 00:19:13;;;;;;;7.18;4.82;;;;;;;15.79;93.68;101829.22;5093244;28;20036;-73
2022/07/23 00:21:39;;;;;;;7.90;5.28;;;;;;;15.76;93.75;101824.03;5093056;28;20028;-73
2022/07/23 00:24:04;;;;;;;6.13;4.65;;;;;;;15.67;94.28;101820.78;5094019;28;20067;-72
2022/07/23 00:26:29;;;;;;;9.10;5.07;;;;;;;15.62;94.97;101814.75;5092157;28;20076;-72
2022/07/23 00:28:55;;;;;;;7.30;5.30;;;;;;;15.57;95.11;101829.81;5092033;28;20032;-73
2022/07/23 00:31:20;;;;;;;5.65;4.65;;;;;;;15.56;95.76;101825.44;5092824;28;20039;-73
2022/07/23 00:33:45;;;;;;;6.20;5.30;;;;;;;15.49;95.51;101820.41;5092781;28;20031;-73
2022/07/23 00:36:11;;;;;;;5.97;5.22;;;;;;;15.40;95.62;101818.91;5091668;28;20089;-73
2022/07/23 00:38:36;;;;;;;6.53;4.90;;;;;;;15.40;95.83;101818.91;5093441;28;20032;-73
2022/07/23 00:41:01;;;;;;;10.32;5.28;;;;;;;15.37;95.51;101816.41;5093656;28;20027;-73
2022/07/23 00:43:27;;;;;;;7.30;5.47;;;;;;;15.39;96.32;101814.56;5092677;28;20032;-73
2022/07/23 00:45:52;;;;;;;5.63;5.13;;;;;;;15.29;95.98;101813.97;5091329;28;20039;-73
2022/07/23 00:48:17;;;;;;;7.15;5.00;;;;;;;15.26;96.15;101815.81;5093579;28;20077;-73
2022/07/23 00:50:43;;;;;;;5.80;5.13;;;;;;;15.22;96.27;101813.25;5092688;28;20028;-72
2022/07/23 00:53:09;;;;;;;7.13;5.20;;;;;;;15.19;96.55;101808.09;5093291;28;20110;-73
2022/07/23 00:55:34;;;;;;;6.45;5.13;;;;;;;15.18;97.38;101816.03;5091767;28;20113;-73
2022/07/23 00:58:01;;;;;;;7.82;5.07;;;;;;;15.15;96.98;101816.97;5092374;28;20032;-73
2022/07/23 01:00:26;;;;;;;6.45;5.00;;;;;;;15.05;96.73;101812.88;5092946;28;20035;-73
2022/07/23 01:02:52;;;;;;;7.85;5.35;;;;;;;14.95;96.58;101809.63;5093023;28;20506;-72
2022/07/23 01:05:21;;;;;;;9.18;5.15;;;;;;;14.91;96.79;101812.34;5091586;28;20027;-72
2022/07/23 01:07:47;;;;;;;8.18;5.32;;;;;;;14.88;97.57;101812.47;5092331;28;20035;-72
2022/07/23 01:10:30;;;;;;;8.07;5.85;;;;;;;14.89;97.63;101812.41;5092338;28;20418;-73
2022/07/23 01:12:56;;;;;;;;;;;;;;;14.96;94.83;101807.84;5092352;28;20077;-73
2022/07/23 01:15:22;;;;;;;9.40;5.60;;;;;;;14.90;98.10;101815.88;5091051;28;19916;-73
2022/07/23 01:17:47;;;;;;;5.57;5.03;;;;;;;14.86;97.54;101815.09;5090931;28;20028;-73
2022/07/23 01:20:12;;;;;;;6.63;5.28;;;;;;;14.78;98.15;101805.69;5091658;28;20459;-73
2022/07/23 01:22:38;;;;;;;6.72;5.00;;;;;;;14.70;98.07;101798.03;5092798;28;20054;-72
2022/07/23 01:25:03;;;;;;;9.02;5.38;;;;;;;14.65;98.41;101806.03;5091971;28;20093;-73
2022/07/23 01:27:29;;;;;;;7.53;5.15;;;;;;;14.61;98.55;101808.75;5090556;28;20020;-73
2022/07/23 01:29:56;;;;;;;7.10;5.63;;;;;;;14.60;98.36;101812.28;5092538;28;20037;-72
2022/07/23 01:32:22;;;;;;;8.02;5.40;;;;;;;14.58;98.61;101814.06;5091859;28;20063;-73
2022/07/23 01:34:47;;;;;;;5.85;5.07;;;;;;;14.54;99.26;101807.19;5091909;28;20035;-73
2022/07/23 01:37:12;;;;;;;10.55;5.72;;;;;;;14.54;99.53;101807.19;5090792;28;20459;-73
2022/07/23 01:39:37;;;;;;;8.50;5.47;;;;;;;14.50;99.55;101798.50;5091070;28;20119;-72
2022/07/23 01:42:03;;;;;;;5.90;5.10;;;;;;;14.48;99.40;101798.50;5089776;28;20044;-73
2022/07/23 01:44:28;;;;;;;5.75;5.10;;;;;;;14.43;99.56;101794.31;5092163;28;20159;-73
2022/07/23 01:46:55;;;;;;;6.47;5.00;;;;;;;14.42;99.25;101797.81;5090723;28;20039;-72
2022/07/23 01:49:20;;;;;;;7.38;5.68;;;;;;;14.38;99.34;101802.25;5089619;28;20596;-72
2022/07/23 01:52:00;;;;;;;6.57;5.75;;;;;;;14.34;99.66;101797.13;5091079;28;20122;-73
2022/07/23 01:54:30;;;;;;;6.03;5.43;;;;;;;14.31;100.00;101803.31;5091320;28;20027;-72
2022/07/23 01:56:56;;;;;;;7.22;5.38;;;;;;;14.24;100.00;101804.38;5091540;28;20051;-72
2022/07/23 01:59:22;;;;;;;6.97;5.38;;;;;;;14.18;100.00;101792.25;5088586;28;20471;-73
2022/07/23 02:01:48;;;;;;;6.85;6.15;;;;;;;14.14;100.00;101797.63;5090863;28;20028;-73
2022/07/23 02:04:13;;;;;;;7.50;5.43;;;;;;;14.11;100.00;101795.91;5091929;28;20028;-73
2022/07/23 02:06:39;;;;;;;9.32;6.15;;;;;;;14.11;100.00;101798.53;5091915;28;20212;-72
2022/07/23 02:09:04;;;;;;;7.97;5.93;;;;;;;14.08;100.00;101787.25;5090592;28;20400;-72
2022/07/23 02:11:29;;;;;;;6.90;5.53;;;;;;;14.04;100.00;101792.56;5090720;28;20051;-72
2022/07/23 02:13:54;;;;;;;8.48;6.45;;;;;;;14.00;100.00;101775.19;5091765;28;20038;-73
2022/07/23 02:16:20;;;;;;;7.63;6.18;;;;;;;14.07;100.00;101790.78;5090958;28;20028;-72
2022/07/23 02:18:46;;;;;;;7.10;5.85;;;;;;;14.09;100.00;101788.97;5091564;28;20036;-73
2022/07/23 02:21:12;;;;;;;8.13;6.13;;;;;;;14.02;100.00;101789.09;5089550;28;20111;-72
2022/07/23 02:23:37;;;;;;;9.73;6.70;;;;;;;13.97;100.00;101790.13;5091492;28;20115;-72
2022/07/23 02:26:03;;;;;;;10.35;6.30;;;;;;;13.95;100.00;101789.28;5091902;28;20156;-73
2022/07/23 02:28:28;;;;;;;7.53;6.65;;;;;;;13.92;100.00;101786.75;5090898;28;20081;-72
2022/07/23 02:30:53;;;;;;;7.30;6.22;;;;;;;13.88;100.00;101787.72;5088068;28;20442;-73
2022/07/23 02:33:18;;;;;;;7.03;6.32;;;;;;;13.90;100.00;101791.16;5090307;28;20070;-73
2022/07/23 02:35:44;;;;;;;11.13;6.97;;;;;;;13.87;100.00;101791.25;5090589;28;20031;-72
2022/07/23 02:38:09;;;;;;;6.82;6.13;;;;;;;13.85;100.00;101782.53;5091200;28;20035;-72
2022/07/23 02:40:34;;;;;;;7.30;6.03;;;;;;;13.79;100.00;101787.00;5090407;28;20081;-72
2022/07/23 02:43:00;;;;;;;8.40;6.88;;;;;;;13.78;100.00;101787.91;5089281;28;20145;-73
2022/07/23 02:45:25;;;;;;;7.43;6.40;;;;;;;13.77;100.00;101794.06;5091337;28;20024;-73
2022/07/23 02:47:50;;;;;;;8.68;6.32;;;;;;;13.76;100.00;101797.53;5090413;28;20028;-72
2022/07/23 02:50:15;;;;;;;10.80;7.13;;;;;;;13.75;100.00;101790.59;5089718;28;20039;-72
2022/07/23 02:52:41;;;;;;;12.18;6.95;;;;;;;13.72;100.00;101798.53;5091243;28;20467;-73
2022/07/23 02:55:07;;;;;;;10.27;7.13;;;;;;;13.68;100.00;101788.16;5090805;28;20112;-73
2022/07/23 02:57:32;;;;;;;10.73;7.22;;;;;;;13.64;100.00;101802.22;5090828;28;20017;-72
2022/07/23 02:59:57;;;;;;;12.50;7.68;;;;;;;13.63;100.00;101801.31;5090681;28;20043;-72
2022/07/23 03:02:23;;;;;;;12.93;7.38;;;;;;;13.62;100.00;101796.13;5088330;28;20424;-72
2022/07/23 03:04:49;;;;;;;8.60;6.90;;;;;;;13.62;100.00;101796.13;5089681;28;20428;-72
2022/07/23 03:07:15;;;;;;;9.38;7.15;;;;;;;13.68;100.00;101799.50;5090331;28;20028;-73
2022/07/23 03:09:40;;;;;;;10.27;7.65;;;;;;;13.67;100.00;101784.66;5089774;28;20032;-72
2022/07/23 03:12:06;;;;;;;9.93;7.93;;;;;;;13.69;100.00;101790.72;5089791;28;20388;-72
2022/07/23 03:14:31;;;;;;;12.23;7.43;;;;;;;13.74;100.00;101804.59;5090880;28;20024;-72
2022/07/23 03:16:59;;;;;;;9.57;7.88;;;;;;;13.71;100.00;101799.41;5090835;28;20028;-73
2022/07/23 03:19:24;;;;;;;13.65;8.40;;;;;;;13.71;100.00;101804.66;5089050;28;20489;-72
2022/07/23 03:21:50;;;;;;;11.82;8.18;;;;;;;13.72;100.00;101805.53;5090811;28;20028;-72
2022/07/23 03:24:17;;;;;;;9.40;8.20;;;;;;;13.71;100.00;101801.19;5089512;28;20031;-72
2022/07/23 03:26:43;;;;;;;12.75;8.38;;;;;;;13.74;100.00;101811.59;5087530;28;20441;-72
2022/07/23 03:29:08;;;;;;;10.05;7.82;;;;;;;13.75;100.00;101816.81;5090803;28;20057;-72
2022/07/23 03:31:33;;;;;;;9.32;8.00;;;;;;;13.67;100.00;101803.00;5089484;28;20396;-72
2022/07/23 03:33:58;;;;;;;10.48;8.27;;;;;;;13.66;100.00;101809.13;5095027;28;20024;-72
2022/07/23 03:36:24;;;;;;;11.43;8.63;;;;;;;13.67;100.00;101809.97;5094599;28;20031;-72
2022/07/23 03:38:50;;;;;;;9.85;8.85;;;;;;;13.62;100.00;101820.56;5093053;28;20539;-72
2022/07/23 03:41:16;;;;;;;10.77;8.85;;;;;;;13.56;100.00;101813.69;5093879;28;20040;-72
2022/07/23 03:43:41;;;;;;;9.07;8.15;;;;;;;13.56;100.00;101811.06;5094062;28;20467;-73
2022/07/23 03:46:06;;;;;;;9.15;8.25;;;;;;;13.56;100.00;101823.31;5094169;28;20020;-72
2022/07/23 03:48:32;;;;;;;11.75;9.63;;;;;;;13.51;100.00;101817.31;5094777;28;20023;-72
2022/07/23 03:50:57;;;;;;;12.10;9.32;;;;;;;13.47;100.00;101820.88;5092149;28;20031;-72
2022/07/23 03:53:22;;;;;;;11.68;8.73;;;;;;;13.39;100.00;101820.19;5093639;28;20031;-72
2022/07/23 03:55:48;;;;;;;9.43;8.38;;;;;;;13.34;100.00;101818.53;5094263;28;20055;-72
2022/07/23 03:58:13;;;;;;;10.95;8.77;;;;;;;13.30;100.00;101818.59;5094528;28;20050;-73
2022/07/23 04:00:38;;;;;;;10.85;9.60;;;;;;;13.33;100.00;101816.78;5092222;28;20032;-72
2022/07/23 04:03:04;;;;;;;11.75;9.50;;;;;;;13.36;100.00;101818.47;5094468;28;20033;-72
2022/07/23 04:05:29;;;;;;;11.52;9.05;;;;;;;13.29;100.00;101817.72;5094158;28;20016;-72
2022/07/23 04:07:54;;;;;;;11.25;9.15;;;;;;;13.32;100.00;101822.91;5092265;28;20024;-72
2022/07/23 04:10:20;;;;;;;14.40;9.77;;;;;;;13.34;100.00;101823.75;5092105;28;20032;-72
2022/07/23 04:12:45;;;;;;;12.85;9.77;;;;;;;13.27;100.00;101824.75;5093968;28;20451;-72
2022/07/23 04:15:10;;;;;;;11.25;9.82;;;;;;;13.25;100.00;101821.31;5093376;28;20036;-72
2022/07/23 04:17:35;;;;;;;13.82;9.98;;;;;;;13.26;100.00;101828.25;5094044;28;20383;-73
2022/07/23 04:20:01;;;;;;;13.48;10.60;;;;;;;13.28;100.00;101826.50;5093275;28;20059;-72
2022/07/23 04:22:26;;;;;;;13.90;10.55;;;;;;;13.27;100.00;101832.59;5093161;28;20035;-72
2022/07/23 04:24:52;;;;;;;11.35;9.98;;;;;;;13.30;100.00;101835.16;5093706;28;20032;-73
2022/07/23 04:27:17;;;;;;;17.13;11.43;;;;;;;13.33;100.00;101835.09;5093730;28;20037;-72
2022/07/23 04:29:42;;;;;;;13.77;10.43;;;;;;;13.30;100.00;101831.69;5091095;28;20032;-72
2022/07/23 04:32:07;;;;;;;12.88;10.25;;;;;;;13.35;100.00;101849.03;5093747;28;20073;-72
2022/07/23 04:34:33;;;;;;;17.90;11.77;;;;;;;13.35;100.00;101848.19;5093557;28;20517;-72
2022/07/23 04:36:58;;;;;;;14.50;11.63;;;;;;;13.37;100.00;101850.75;5092891;28;20028;-72
2022/07/23 04:39:24;;;;;;;15.02;11.30;;;;;;;13.38;100.00;101852.50;5092136;28;20463;-73
2022/07/23 04:41:49;;;;;;;15.52;12.13;;;;;;;13.41;100.00;101844.59;5092593;28;20383;-73
2022/07/23 04:44:14;;;;;;;14.95;12.00;;;;;;;13.41;100.00;101847.22;5093272;28;20046;-72
2022/07/23 04:46:39;;;;;;;13.75;12.20;;;;;;;13.48;100.00;101852.28;5093464;28;20054;-72
2022/07/23 04:49:05;;;;;;;17.98;12.43;;;;;;;13.53;100.00;101860.03;5091931;28;20067;-72
2022/07/23 04:51:30;;;;;;;15.23;12.18;;;;;;;13.56;100.00;101860.84;5091690;28;20016;-73
2022/07/23 04:53:55;;;;;;;15.27;11.88;;;;;;;13.62;100.00;101857.25;5093152;28;20135;-73
2022/07/23 04:56:21;;;;;;;15.93;12.57;;;;;;;13.72;100.00;101863.19;5092380;28;20040;-72
2022/07/23 04:58:47;;;;;;;16.60;12.80;;;;;;;13.79;100.00;101865.63;5093038;28;20024;-73
2022/07/23 05:01:12;;;;;;;16.90;13.40;;;;;;;13.81;100.00;101858.59;5090911;28;20395;-72
2022/07/23 05:03:37;;;;;;;17.38;13.52;;;;;;;13.85;100.00;101858.53;5092321;28;20384;-72
2022/07/23 05:06:03;;;;;;;14.23;12.50;;;;;;;13.89;100.00;101853.19;5092976;28;20379;-72
2022/07/23 05:08:28;;;;;;;15.93;12.60;;;;;;;13.93;100.00;101856.63;5093349;28;20056;-73
2022/07/23 05:10:54;;;;;;;16.50;12.73;;;;;;;13.86;100.00;101845.41;5088679;28;20028;-73
2022/07/23 05:13:19;;;;;;;19.80;13.35;;;;;;;13.96;100.00;101857.44;5093006;28;20024;-72
2022/07/23 05:15:46;;;;;;;17.60;13.80;;;;;;;14.02;100.00;101862.53;5092656;28;20028;-73
2022/07/23 05:18:12;;;;;;;15.77;13.85;;;;;;;14.09;100.00;101859.78;5092069;28;20024;-73
2022/07/23 05:20:38;;;;;;;16.00;12.88;;;;;;;14.14;100.00;101864.03;5091886;28;20494;-73
2022/07/23 05:23:03;;;;;;;19.55;14.27;;;;;;;14.16;100.00;101870.13;5092730;28;20016;-73
2022/07/23 05:25:28;;;;;;;18.00;12.90;;;;;;;14.21;100.00;101867.38;5092109;28;20036;-72
2022/07/23 05:27:54;;;;;;;16.60;12.93;;;;;;;14.24;100.00;101869.94;5092470;28;20064;-73
2022/07/23 05:30:22;;;;;;;16.08;13.23;;;;;;;14.30;100.00;101872.41;5091681;28;20103;-73
2022/07/23 05:32:47;;;;;;;15.02;13.43;;;;;;;14.33;100.00;101871.50;5091682;28;20111;-73
2022/07/23 05:35:12;;;;;;;15.30;12.82;;;;;;;14.39;100.00;101869.59;5092336;28;20020;-73
2022/07/23 05:37:38;;;;;;;14.63;12.63;;;;;;;14.48;100.00;101876.38;5091123;28;21681;-72
2022/07/23 05:40:08;;;;;;;14.70;12.38;;;;;;;14.53;100.00;101871.94;5090924;28;20093;-72
2022/07/23 05:42:38;;;;;;;16.60;12.07;;;;;;;14.57;100.00;101877.97;5092316;28;20028;-73
2022/07/23 05:45:05;;;;;;;14.52;11.77;;;;;;;14.60;100.00;101881.38;5091695;28;20543;-73
2022/07/23 05:47:49;;;;;;;14.45;11.88;;;;;;;14.65;100.00;101878.63;5092409;28;20379;-73
2022/07/23 05:50:15;;;;;;;15.05;11.07;;;;;;;14.71;100.00;101888.97;5087130;28;20107;-73
2022/07/23 05:52:41;;;;;;;12.65;11.35;;;;;;;14.77;100.00;101885.34;5090744;28;20035;-73
2022/07/23 05:55:08;;;;;;;15.02;11.10;;;;;;;14.84;99.51;101890.41;5090968;28;20093;-73
2022/07/23 05:57:34;;;;;;;13.35;10.70;;;;;;;14.92;99.11;101893.72;5092106;28;20403;-73
2022/07/23 05:59:59;;;;;;;16.05;11.10;;;;;;;14.98;99.17;101892.72;5089996;28;20020;-73
2022/07/23 06:02:24;;;;;;;12.73;10.55;;;;;;;15.00;98.63;101890.88;5090293;28;20028;-73
2022/07/23 06:04:50;;;;;;;12.73;10.57;;;;;;;15.07;98.47;101900.34;5091150;28;20039;-73
2022/07/23 06:07:15;;;;;;;14.45;10.35;;;;;;;15.14;98.39;101899.31;5091065;28;20532;-73
2022/07/23 06:09:40;;;;;;;12.27;9.88;;;;;;;15.21;98.65;101898.25;5091198;28;20031;-73
2022/07/23 06:12:06;;;;;;;12.50;10.10;;;;;;;15.30;96.56;101909.38;5089766;28;20024;-73
2022/07/23 06:14:31;;;;;;;11.77;9.70;;;;;;;15.31;95.84;101912.00;5088210;28;20021;-72
2022/07/23 06:16:57;;;;;;;12.20;9.57;;;;;;;15.38;96.68;101905.66;5090693;28;20107;-73
2022/07/23 06:19:22;;;;;;;13.43;9.32;;;;;;;15.45;95.54;101911.63;5089786;28;20096;-73
2022/07/23 06:21:47;;;;;;;15.25;9.90;;;;;;;15.54;95.01;101902.63;5090987;28;20024;-73
2022/07/23 06:24:13;;;;;;;11.88;9.50;;;;;;;15.59;94.96;101896.34;5091591;28;20036;-73
2022/07/23 06:26:38;;;;;;;13.07;9.48;;;;;;;15.67;94.94;101898.81;5090538;28;20032;-73
2022/07/23 06:29:03;;;;;;;10.20;8.90;;;;;;;15.73;95.26;101896.00;5089224;28;20032;-73
2022/07/23 06:31:28;;;;;;;9.45;7.47;;;;;;;15.76;92.66;101897.66;5092063;28;20020;-73
2022/07/23 06:33:54;;;;;;;10.07;7.55;;;;;;;15.84;92.17;101901.81;5089885;28;20032;-72
2022/07/23 06:36:19;;;;;;;13.15;7.72;;;;;;;15.88;91.24;101899.94;5091942;28;20020;-73
2022/07/23 06:38:45;;;;;;;12.35;8.80;;;;;;;15.91;90.40;101902.50;5091669;28;20422;-73
2022/07/23 06:41:10;;;;;;;10.85;7.60;;;;;;;15.93;89.73;101905.94;5089884;28;20042;-73
2022/07/23 06:43:36;;;;;;;9.57;7.68;;;;;;;16.00;88.98;101906.63;5090639;28;20075;-72
2022/07/23 06:46:01;;;;;;;10.98;7.32;;;;;;;16.08;89.09;101909.88;5090348;28;20070;-72
2022/07/23 06:48:26;;;;;;;12.30;7.32;;;;;;;16.15;90.02;101903.53;5091842;28;20472;-73
2022/07/23 06:50:52;;;;;;;8.30;7.07;;;;;;;16.25;88.51;101912.91;5090589;28;20029;-73
2022/07/23 06:53:18;;;;;;;7.88;6.68;;;;;;;16.27;87.79;101911.06;5091319;28;20363;-75
2022/07/23 06:55:43;;;;;;;10.82;6.30;;;;;;;16.31;86.23;101907.41;5089469;28;20451;-75
2022/07/23 06:58:09;;;;;;;7.13;6.03;;;;;;;16.40;86.45;101906.28;5090185;28;20084;-75
2022/07/23 07:00:35;;;;;;;8.82;6.30;;;;;;;16.47;87.25;101905.19;5090952;28;20024;-75
2022/07/23 07:03:00;;;;;;;8.25;6.00;;;;;;;16.55;86.54;101902.34;5090382;28;20043;-74
2022/07/23 07:05:27;;;;;;;12.57;6.22;;;;;;;16.63;86.62;101898.53;5086505;28;20031;-74
2022/07/23 07:07:55;;;;;;;7.13;5.85;;;;;;;16.69;85.51;101904.53;5089923;28;20122;-74
2022/07/23 07:10:21;;;;;;;7.97;5.97;;;;;;;16.79;85.68;101898.06;5104449;28;20066;-74
2022/07/23 07:12:46;;;;;;;6.35;5.43;;;;;;;16.85;84.37;101900.50;5096127;28;20043;-74
2022/07/23 07:15:12;;;;;;;9.10;6.13;;;;;;;16.84;83.63;101899.66;5095006;28;20064;-74
2022/07/23 07:17:37;;;;;;;8.55;4.80;;;;;;;16.93;83.76;101895.84;5090528;28;20020;-74
2022/07/23 07:20:03;;;;;;;8.77;5.93;;;;;;;16.97;83.35;101897.47;5094390;28;20031;-74
2022/07/23 07:22:29;;;;;;;8.18;6.10;;;;;;;17.05;84.52;101898.06;5091822;28;20043;-74
2022/07/23 07:24:55;;;;;;;5.88;5.20;;;;;;;17.08;81.76;101905.00;5091230;28;20107;-74
2022/07/23 07:27:20;;;;;;;7.45;5.10;;;;;;;17.11;80.89;101920.72;5093777;28;20478;-74
2022/07/23 07:29:45;;;;;;;8.13;4.95;;;;;;;17.14;80.38;101914.50;5094449;28;20425;-74
2022/07/23 07:32:10;;;;;;;5.82;4.35;;;;;;;17.22;81.17;101913.28;5094133;28;20099;-74
2022/07/23 07:34:36;;;;;;;7.15;4.90;;;;;;;17.24;77.51;101921.16;5093961;28;20032;-74
2022/07/23 07:37:01;;;;;;;6.93;4.40;;;;;;;17.27;78.39;101926.34;5089981;28;20525;-74
2022/07/23 07:39:26;;;;;;;7.82;4.72;;;;;;;17.31;77.40;101923.53;5086241;28;20028;-74
2022/07/23 07:41:52;;;;;;;6.10;5.00;;;;;;;17.41;76.44;101924.06;5094475;28;20028;-74
2022/07/23 07:44:17;;;;;;;11.77;5.22;;;;;;;17.47;75.69;101913.31;5094585;28;20131;-74
2022/07/23 07:46:42;;;;;;;5.28;4.60;;;;;;;17.54;77.52;101916.59;5093716;28;20012;-74
2022/07/23 07:49:08;;;;;;;6.63;4.22;;;;;;;17.59;74.90;101921.69;5094641;28;20047;-74
2022/07/23 07:51:33;;;;;;;6.90;5.25;;;;;;;17.62;76.85;101917.16;5094576;28;20041;-74
2022/07/23 07:53:59;;;;;;;7.95;5.65;;;;;;;17.68;73.75;101918.72;5091218;28;20028;-74
2022/07/23 07:56:24;;;;;;;8.85;5.97;;;;;;;17.73;76.45;101914.16;5094028;28;20506;-74
2022/07/23 07:58:49;;;;;;;8.25;5.57;;;;;;;17.82;78.66;101919.16;5092677;28;20371;-74
2022/07/23 08:01:14;;;;;;;10.55;5.88;;;;;;;17.90;77.45;101921.50;5092088;28;20380;-74
2022/07/23 08:03:40;;;;;;;8.40;5.38;;;;;;;17.93;74.65;101916.97;5088190;28;20506;-73
2022/07/23 08:06:06;;;;;;;12.13;5.60;;;;;;;18.06;73.57;101922.63;5093806;28;20031;-73
2022/07/23 08:08:31;;;;;;;6.88;5.55;;;;;;;18.11;74.10;101925.94;5094664;28;20043;-74
2022/07/23 08:10:56;;;;;;;9.18;6.43;;;;;;;18.18;72.76;101926.56;5092660;28;20098;-74
2022/07/23 08:13:22;;;;;;;12.75;6.65;;;;;;;18.29;72.64;101923.53;5092968;28;20020;-74
2022/07/23 08:15:47;;;;;;;10.38;6.53;;;;;;;18.31;74.80;101913.78;5092794;28;20032;-74
2022/07/23 08:18:12;;;;;;;11.85;6.32;;;;;;;18.41;75.84;101921.28;5093621;28;20468;-74
2022/07/23 08:20:38;;;;;;;8.52;6.25;;;;;;;18.54;74.70;101926.06;5093423;28;20538;-74
2022/07/23 08:23:05;;;;;;;9.80;6.30;;;;;;;18.59;72.79;101921.47;5093706;28;20043;-74
2022/07/23 08:25:33;;;;;;;7.55;5.75;;;;;;;18.65;70.46;101937.09;5093073;28;20352;-74
2022/07/23 08:28:00;;;;;;;6.18;5.05;;;;;;;18.73;71.85;101935.00;5092406;28;20092;-73
2022/07/23 08:30:26;;;;;;;6.63;5.53;;;;;;;18.82;69.67;101939.94;5093465;28;20032;-74
2022/07/23 08:32:53;;;;;;;6.90;5.20;;;;;;;18.90;68.05;101937.84;5093413;28;20035;-74
2022/07/23 08:35:25;;;;;;;6.03;4.40;;;;;;;19.00;69.65;101940.09;5092571;28;20474;-74
2022/07/23 08:37:51;;;;;;;5.68;4.47;;;;;;;19.11;68.00;101935.22;5091805;28;20521;-74
2022/07/23 08:40:17;;;;;;;6.80;4.68;;;;;;;19.21;67.22;101941.84;5093304;28;20027;-74
2022/07/23 08:42:42;;;;;;;8.30;5.32;;;;;;;19.31;67.68;101945.81;5092753;28;20024;-74
2022/07/23 08:45:09;;;;;;;5.82;4.32;;;;;;;19.44;67.29;101946.16;5092500;28;20027;-73
2022/07/23 08:47:37;;;;;;;8.23;3.67;;;;;;;19.56;68.61;101950.06;5093902;28;20028;-74
2022/07/23 08:50:03;;;;;;;4.45;3.33;;;;;;;19.63;67.61;101935.63;5092884;28;20182;-74
2022/07/23 08:52:30;;;;;;;7.40;4.47;;;;;;;19.78;68.40;101948.22;5092383;28;20045;-73
2022/07/23 08:54:57;;;;;;;6.53;4.45;;;;;;;19.95;66.17;101946.63;5091192;28;20387;-74
2022/07/23 08:57:22;;;;;;;7.60;4.57;;;;;;;20.09;66.29;101946.84;5091314;28;20034;-73
2022/07/23 08:59:47;;;;;;;6.18;4.28;;;;;;;20.19;66.94;101947.28;5093184;28;20028;-74
2022/07/23 09:02:12;;;;;;;5.45;4.80;;;;;;;20.26;65.26;101951.34;5090236;28;20378;-73
2022/07/23 09:04:38;;;;;;;10.85;8.77;;;;;;;20.27;65.21;101943.34;5091495;28;20386;-73
2022/07/23 09:07:04;;;;;;;12.00;5.88;;;;;;;20.26;64.29;101948.69;5090738;28;20024;-73
2022/07/23 09:09:31;;;;;;;6.18;5.57;;;;;;;20.27;66.35;101948.66;5088520;28;20055;-73
2022/07/23 09:12:08;;;;;;;8.52;7.60;;;;;;;20.23;66.02;101944.41;5091439;28;20386;-74
2022/07/23 09:14:38;;;;;;;6.78;4.85;;;;;;;20.30;64.05;101932.59;5090729;28;20024;-73
2022/07/23 09:17:11;;;;;;;7.57;4.95;;;;;;;20.40;62.74;101929.50;5091531;28;20528;-74
2022/07/23 09:19:37;;;;;;;9.38;4.60;;;;;;;20.45;63.49;101927.50;5092709;28;20118;-74
2022/07/23 09:22:26;;;;;;;7.78;5.00;;;;;;;20.52;63.26;101926.31;5092907;28;20479;-74
2022/07/23 09:25:03;;;;;;;5.85;4.32;;;;;;;20.60;61.44;101920.63;5091871;28;20020;-74
2022/07/23 09:27:55;;;;;;;5.15;3.85;;;;;;;20.66;61.77;101915.91;5091123;28;20046;-74
2022/07/23 09:30:22;;;;;;;5.70;4.45;;;;;;;20.81;63.11;101916.94;5090947;28;20020;-73
2022/07/23 09:33:26;;;;;;;6.70;5.45;;;;;;;21.06;63.80;101929.84;5092170;28;20498;-73
2022/07/23 09:35:54;;;;;;;5.55;4.40;;;;;;;21.20;60.06;101931.78;5049903;28;20037;-74
2022/07/23 09:38:24;;;;;;;6.47;4.40;;;;;;;21.28;61.31;101935.75;5036437;28;20029;-74
2022/07/23 09:41:09;;;;;;;5.40;4.13;;;;;;;21.19;63.51;101938.91;5070392;28;20063;-74
2022/07/23 09:43:35;;;;;;;5.40;4.28;;;;;;;21.11;63.08;101937.56;5088013;28;20033;-74
2022/07/23 09:46:17;;;;;;;6.85;4.95;;;;;;;21.07;62.63;101944.81;5091606;28;20031;-74
2022/07/23 09:48:42;;;;;;;7.22;4.32;;;;;;;21.25;61.70;101935.06;5091863;28;20506;-73
2022/07/23 09:51:08;;;;;;;6.13;4.68;;;;;;;21.54;61.00;101944.19;5090457;28;20070;-74
2022/07/23 09:53:33;;;;;;;6.15;4.28;;;;;;;21.71;60.71;101928.28;5089782;28;20019;-74
2022/07/23 09:56:00;;;;;;;5.40;4.55;;;;;;;21.92;60.76;101938.66;5089419;28;20040;-73
2022/07/23 09:58:29;;;;;;;8.57;4.60;;;;;;;22.08;59.15;101950.19;5091678;28;20482;-75
2022/07/23 10:00:55;;;;;;;6.60;4.40;;;;;;;22.24;58.96;101944.91;5092099;28;20024;-75
2022/07/23 10:03:21;;;;;;;5.22;4.45;;;;;;;22.36;59.16;101938.06;5091495;28;20498;-75
2022/07/23 10:05:46;;;;;;;6.28;4.78;;;;;;;22.35;57.72;101942.50;5090853;28;20110;-74
2022/07/23 10:08:12;;;;;;;5.05;4.00;;;;;;;22.39;58.81;101937.88;5089268;28;20044;-75
2022/07/23 10:10:41;;;;;;;5.10;3.80;;;;;;;22.51;59.50;101939.88;5090307;28;20028;-73
2022/07/23 10:13:21;;;;;;;6.53;4.97;;;;;;;22.53;56.41;101937.09;5090157;28;20521;-74
2022/07/23 10:15:46;;;;;;;5.18;4.03;;;;;;;22.61;58.06;101934.88;5090542;28;20073;-76
2022/07/23 10:18:12;;;;;;;5.63;3.97;;;;;;;22.67;56.02;101943.38;5090946;28;20024;-76
2022/07/23 10:20:38;;;;;;;5.55;3.92;;;;;;;22.71;56.04;101935.22;5089433;28;20035;-76
2022/07/23 10:23:45;;;;;;;5.78;3.38;;;;;;;22.78;58.40;101939.22;5090798;28;20016;-75
2022/07/23 10:26:19;;;;;;;6.20;3.80;;;;;;;22.74;55.74;101935.03;5085165;28;20028;-75
2022/07/23 10:29:17;;;;;;;4.63;3.00;;;;;;;22.74;54.74;101929.72;5089004;28;20024;-76
2022/07/23 10:32:07;;;;;;;5.75;3.05;;;;;;;22.96;54.96;101940.03;5079731;28;20055;-75
2022/07/23 10:34:38;;;;;;;4.80;3.75;;;;;;;22.96;53.72;101940.88;5081090;28;20036;-75
2022/07/23 10:37:20;;;;;;;5.97;3.28;;;;;;;22.98;54.81;101938.97;5090472;28;20498;-75
2022/07/23 10:39:45;;;;;;;3.92;2.90;;;;;;;23.10;53.20;101932.06;5083477;28;20063;-75
2022/07/23 10:42:13;;;;;;;6.13;3.58;;;;;;;23.23;52.24;101940.19;5082986;28;20059;-75
2022/07/23 10:44:42;;;;;;;3.65;3.00;;;;;;;23.35;50.91;101944.78;5090716;28;20020;-75
2022/07/23 10:47:20;;;;;;;3.70;3.35;;;;;;;23.46;52.19;101939.66;5090175;28;20031;-76
2022/07/23 10:49:46;;;;;;;6.50;3.20;;;;;;;23.65;56.29;101925.25;5084504;28;20024;-76
2022/07/23 10:52:14;;;;;;;4.65;3.17;;;;;;;23.69;52.09;101929.44;5084881;28;20020;-76
2022/07/23 10:54:42;;;;;;;3.40;3.10;;;;;;;23.77;50.33;101927.16;5087367;28;20043;-76
2022/07/23 10:57:09;;;;;;;3.50;3.20;;;;;;;23.92;53.31;101928.03;5084665;28;20032;-75
2022/07/23 11:00:08;;;;;;;4.18;2.97;;;;;;;24.01;53.39;101941.63;5090314;28;20033;-76
2022/07/23 11:02:34;;;;;;;5.22;3.55;;;;;;;23.93;49.46;101930.56;5085021;28;20077;-76
2022/07/23 11:05:11;;;;;;;3.65;2.83;;;;;;;24.15;49.82;101931.91;5091515;28;20024;-76
2022/07/23 11:08:17;;;;;;;4.30;3.17;;;;;;;24.32;51.37;101931.66;5081000;28;20065;-76
2022/07/23 11:10:46;;;;;;;3.28;2.80;;;;;;;24.47;50.31;101928.06;5089139;28;20036;-76
2022/07/23 11:13:37;;;;;;;6.45;2.83;;;;;;;24.53;51.16;101922.34;5089798;28;20016;-76
2022/07/23 11:16:05;;;;;;;3.42;2.25;;;;;;;24.67;50.23;101923.22;5090665;28;20102;-76
2022/07/23 11:18:40;;;;;;;4.78;2.25;;;;;;;24.91;51.48;101923.41;5087785;28;20024;-76
2022/07/23 11:21:23;;;;;;;3.55;2.80;;;;;;;25.00;50.62;101925.47;5086060;28;20043;-76